Time;durP1;ratioP1;P1;durP2;ratioP2;P2;SDS_P1;SDS_P2;PMS_P1;PMS_P2;Temp;Humidity;BMP_temperature;BMP_pressure;BME280_temperature;BME280_humidity;BME280_pressure;Samples;Min_cycle;Max_cycle;Signal;HPM_P1;HPM_P2
2023/08/28 00:01:04;;;;;;;22.20;19.80;;;;;;;-128.00;-1.00;-1.00;105295;1255;1004439;-80
2023/08/28 00:03:31;;;;;;;24.50;18.80;;;;;;;-128.00;-1.00;-1.00;105272;1255;1004611;-80
2023/08/28 00:05:57;;;;;;;25.60;18.80;;;;;;;-128.00;-1.00;-1.00;105189;1255;1004912;-79
2023/08/28 00:08:24;;;;;;;29.40;20.60;;;;;;;-128.00;-1.00;-1.00;105251;1256;1004102;-80
2023/08/28 00:10:53;;;;;;;23.30;19.60;;;;;;;-128.00;-1.00;-1.00;105272;1255;1005147;-80
2023/08/28 00:13:20;;;;;;;23.30;19.90;;;;;;;-128.00;-1.00;-1.00;105289;1256;1060854;-80
2023/08/28 00:15:46;;;;;;;26.90;20.40;;;;;;;-128.00;-1.00;-1.00;105274;1256;1003708;-80
2023/08/28 00:18:13;;;;;;;21.80;19.50;;;;;;;-128.00;-1.00;-1.00;105276;1255;1003543;-80
2023/08/28 00:20:40;;;;;;;23.80;20.50;;;;;;;-128.00;-1.00;-1.00;105273;1255;1004750;-80
2023/08/28 00:23:06;;;;;;;28.90;20.60;;;;;;;-128.00;-1.00;-1.00;105285;1259;1003579;-80
2023/08/28 00:25:33;;;;;;;44.10;32.10;;;;;;;-128.00;-1.00;-1.00;105267;1255;1004208;-80
2023/08/28 00:27:59;;;;;;;46.50;34.10;;;;;;;-128.00;-1.00;-1.00;105255;1255;1004927;-80
2023/08/28 00:30:26;;;;;;;60.00;39.80;;;;;;;-128.00;-1.00;-1.00;105236;1255;1004836;-80
2023/08/28 00:32:53;;;;;;;63.30;41.10;;;;;;;-128.00;-1.00;-1.00;105246;1256;1004166;-80
2023/08/28 00:35:19;;;;;;;68.10;45.10;;;;;;;-128.00;-1.00;-1.00;105289;1256;1004064;-80
2023/08/28 00:37:46;;;;;;;72.40;45.60;;;;;;;-128.00;-1.00;-1.00;105248;1256;1004596;-80
2023/08/28 00:40:13;;;;;;;65.60;43.00;;;;;;;-128.00;-1.00;-1.00;105239;1259;1003803;-80
2023/08/28 00:42:40;;;;;;;59.20;40.10;;;;;;;-128.00;-1.00;-1.00;105219;1256;1003867;-80
2023/08/28 00:45:07;;;;;;;56.60;37.70;;;;;;;-128.00;-1.00;-1.00;105226;1256;1004146;-80
2023/08/28 00:47:34;;;;;;;59.90;39.00;;;;;;;-128.00;-1.00;-1.00;105275;1256;1004405;-80
2023/08/28 00:50:02;;;;;;;57.00;36.90;;;;;;;-128.00;-1.00;-1.00;105279;1255;1004646;-80
2023/08/28 00:52:29;;;;;;;55.50;36.40;;;;;;;-128.00;-1.00;-1.00;105336;1254;1004078;-80
2023/08/28 00:54:56;;;;;;;51.00;33.80;;;;;;;-128.00;-1.00;-1.00;105385;1254;1004431;-80
2023/08/28 00:57:22;;;;;;;53.00;33.50;;;;;;;-128.00;-1.00;-1.00;105388;1254;1004335;-80
2023/08/28 00:59:49;;;;;;;45.00;29.90;;;;;;;-128.00;-1.00;-1.00;105398;1254;1004492;-80
2023/08/28 01:02:15;;;;;;;44.10;29.00;;;;;;;-128.00;-1.00;-1.00;105395;1257;1003936;-80
2023/08/28 01:04:42;;;;;;;35.30;24.00;;;;;;;-128.00;-1.00;-1.00;105365;1254;1004418;-80
2023/08/28 01:07:21;;;;;;;35.30;22.60;;;;;;;-128.00;-1.00;-1.00;105370;1254;1004698;-80
2023/08/28 01:09:57;;;;;;;26.90;17.50;;;;;;;-128.00;-1.00;-1.00;105239;1254;1045516;-80
2023/08/28 01:13:07;;;;;;;19.30;14.70;;;;;;;-128.00;-1.00;-1.00;105356;1254;1047544;-80
2023/08/28 01:15:34;;;;;;;21.20;13.20;;;;;;;-128.00;-1.00;-1.00;105094;1254;1060551;-80
2023/08/28 01:18:02;;;;;;;17.00;11.60;;;;;;;-128.00;-1.00;-1.00;105388;1254;1005037;-80
2023/08/28 01:20:30;;;;;;;21.50;14.00;;;;;;;-128.00;-1.00;-1.00;105425;1254;1004378;-80
2023/08/28 01:22:56;;;;;;;21.60;13.70;;;;;;;-128.00;-1.00;-1.00;105371;1254;1004538;-80
2023/08/28 01:25:26;;;;;;;14.80;11.00;;;;;;;-128.00;-1.00;-1.00;105389;1254;1004741;-79
2023/08/28 01:27:53;;;;;;;11.90;8.30;;;;;;;-128.00;-1.00;-1.00;105390;1259;1059909;-80
2023/08/28 01:30:20;;;;;;;11.50;8.20;;;;;;;-128.00;-1.00;-1.00;105385;1254;1004143;-80
2023/08/28 01:32:47;;;;;;;12.60;8.90;;;;;;;-128.00;-1.00;-1.00;105222;1254;1003997;-80
2023/08/28 01:35:20;;;;;;;10.30;7.20;;;;;;;-128.00;-1.00;-1.00;105392;1254;1005150;-79
2023/08/28 01:37:54;;;;;;;9.90;6.40;;;;;;;-128.00;-1.00;-1.00;105565;1254;1045829;-80
2023/08/28 01:40:22;;;;;;;10.80;7.40;;;;;;;-128.00;-1.00;-1.00;105466;1254;1062433;-79
2023/08/28 01:42:49;;;;;;;7.70;6.30;;;;;;;-128.00;-1.00;-1.00;105392;1254;1004096;-79
2023/08/28 01:45:16;;;;;;;9.10;7.00;;;;;;;-128.00;-1.00;-1.00;105217;1254;1004529;-79
2023/08/28 01:47:42;;;;;;;7.30;5.50;;;;;;;-128.00;-1.00;-1.00;105372;1254;1004628;-79
2023/08/28 01:50:09;;;;;;;8.40;5.80;;;;;;;-128.00;-1.00;-1.00;105369;1254;1004519;-80
2023/08/28 01:52:36;;;;;;;8.60;5.90;;;;;;;-128.00;-1.00;-1.00;105351;1256;1003854;-79
2023/08/28 01:55:02;;;;;;;6.80;5.70;;;;;;;-128.00;-1.00;-1.00;105262;1256;1004158;-79
2023/08/28 01:57:29;;;;;;;6.20;5.40;;;;;;;-128.00;-1.00;-1.00;105194;1256;1005134;-80
2023/08/28 01:59:55;;;;;;;6.30;5.70;;;;;;;-128.00;-1.00;-1.00;105242;1256;1004453;-80
2023/08/28 02:02:23;;;;;;;6.20;3.90;;;;;;;-128.00;-1.00;-1.00;105232;1255;1004162;-80
2023/08/28 02:04:50;;;;;;;5.80;4.50;;;;;;;-128.00;-1.00;-1.00;105246;1256;1004381;-79
2023/08/28 02:07:16;;;;;;;6.20;4.70;;;;;;;-128.00;-1.00;-1.00;105258;1256;1004177;-80
2023/08/28 02:09:43;;;;;;;4.50;3.80;;;;;;;-128.00;-1.00;-1.00;105242;1255;1004539;-80
2023/08/28 02:12:09;;;;;;;5.60;3.20;;;;;;;-128.00;-1.00;-1.00;105240;1256;1004058;-80
2023/08/28 02:14:36;;;;;;;6.30;3.70;;;;;;;-128.00;-1.00;-1.00;105263;1256;1004455;-80
2023/08/28 02:17:02;;;;;;;4.40;3.20;;;;;;;-128.00;-1.00;-1.00;105257;1256;1004289;-79
2023/08/28 02:19:28;;;;;;;6.00;3.90;;;;;;;-128.00;-1.00;-1.00;105287;1256;1004027;-80
2023/08/28 02:21:55;;;;;;;5.10;3.90;;;;;;;-128.00;-1.00;-1.00;105249;1256;1003521;-80
2023/08/28 02:24:21;;;;;;;6.20;3.60;;;;;;;-128.00;-1.00;-1.00;105240;1255;1004050;-80
2023/08/28 02:26:49;;;;;;;4.20;2.70;;;;;;;-128.00;-1.00;-1.00;105267;1255;1004472;-79
2023/08/28 02:29:16;;;;;;;7.00;3.40;;;;;;;-128.00;-1.00;-1.00;105275;1255;1004422;-80
2023/08/28 02:31:43;;;;;;;4.20;3.60;;;;;;;-128.00;-1.00;-1.00;105269;1256;1004864;-80
2023/08/28 02:34:09;;;;;;;5.00;2.80;;;;;;;-128.00;-1.00;-1.00;105232;1256;1004435;-80
2023/08/28 02:36:35;;;;;;;4.00;3.20;;;;;;;-128.00;-1.00;-1.00;105242;1255;1004211;-79
2023/08/28 02:39:04;;;;;;;3.00;2.70;;;;;;;-128.00;-1.00;-1.00;105242;1255;1004133;-80
2023/08/28 02:41:31;;;;;;;5.50;2.60;;;;;;;-128.00;-1.00;-1.00;105277;1256;1060452;-80
2023/08/28 02:43:57;;;;;;;3.20;2.60;;;;;;;-128.00;-1.00;-1.00;105248;1256;1004000;-80
2023/08/28 02:46:24;;;;;;;3.60;2.40;;;;;;;-128.00;-1.00;-1.00;105221;1256;1004103;-80
2023/08/28 02:48:50;;;;;;;3.30;3.00;;;;;;;-128.00;-1.00;-1.00;105231;1256;1004401;-80
2023/08/28 02:51:17;;;;;;;3.60;2.50;;;;;;;-128.00;-1.00;-1.00;105280;1255;1004432;-79
2023/08/28 02:53:43;;;;;;;5.30;2.70;;;;;;;-128.00;-1.00;-1.00;105367;1254;1004457;-79
2023/08/28 02:56:26;;;;;;;5.20;3.00;;;;;;;-128.00;-1.00;-1.00;105400;1254;1004822;-79
2023/08/28 02:58:53;;;;;;;5.10;2.90;;;;;;;-128.00;-1.00;-1.00;105394;1254;1059649;-80
2023/08/28 03:01:20;;;;;;;5.00;2.60;;;;;;;-128.00;-1.00;-1.00;105389;1254;1003573;-80
2023/08/28 03:03:47;;;;;;;3.50;2.40;;;;;;;-128.00;-1.00;-1.00;105261;1254;1003915;-80
2023/08/28 03:06:13;;;;;;;2.90;2.10;;;;;;;-128.00;-1.00;-1.00;105288;1254;1004467;-80
2023/08/28 03:08:40;;;;;;;5.10;2.30;;;;;;;-128.00;-1.00;-1.00;105380;1254;1004742;-80
2023/08/28 03:11:06;;;;;;;2.80;2.10;;;;;;;-128.00;-1.00;-1.00;105399;1254;1004382;-80
2023/08/28 03:13:33;;;;;;;2.90;2.50;;;;;;;-128.00;-1.00;-1.00;105368;1254;1004062;-80
2023/08/28 03:15:59;;;;;;;2.70;2.00;;;;;;;-128.00;-1.00;-1.00;105405;1254;1003831;-80
2023/08/28 03:18:26;;;;;;;4.00;2.30;;;;;;;-128.00;-1.00;-1.00;105377;1254;1004919;-80
2023/08/28 03:20:53;;;;;;;2.50;2.10;;;;;;;-128.00;-1.00;-1.00;105376;1254;1004592;-80
2023/08/28 03:23:19;;;;;;;2.30;2.00;;;;;;;-128.00;-1.00;-1.00;105381;1254;1004373;-80
2023/08/28 03:25:46;;;;;;;4.40;2.70;;;;;;;-128.00;-1.00;-1.00;105379;1254;1003645;-80
2023/08/28 03:28:12;;;;;;;27.70;21.70;;;;;;;-128.00;-1.00;-1.00;105380;1254;1004256;-80
2023/08/28 03:30:39;;;;;;;26.20;23.20;;;;;;;-128.00;-1.00;-1.00;105408;1254;1004350;-80
2023/08/28 03:33:07;;;;;;;17.50;15.80;;;;;;;-128.00;-1.00;-1.00;105398;1254;1005197;-80
2023/08/28 03:35:34;;;;;;;11.30;10.20;;;;;;;-128.00;-1.00;-1.00;105388;1254;1060224;-80
2023/08/28 03:38:01;;;;;;;9.60;8.60;;;;;;;-128.00;-1.00;-1.00;105359;1254;1004334;-80
2023/08/28 03:40:27;;;;;;;6.70;3.60;;;;;;;-128.00;-1.00;-1.00;105428;1254;1004710;-80
2023/08/28 03:42:54;;;;;;;5.50;3.80;;;;;;;-128.00;-1.00;-1.00;105401;1254;1004169;-80
2023/08/28 03:45:20;;;;;;;5.60;3.70;;;;;;;-128.00;-1.00;-1.00;105508;1254;1004507;-80
2023/08/28 03:47:47;;;;;;;6.00;3.60;;;;;;;-128.00;-1.00;-1.00;105553;1254;1004877;-80
2023/08/28 03:50:13;;;;;;;3.90;3.50;;;;;;;-128.00;-1.00;-1.00;105509;1254;1004557;-80
2023/08/28 03:52:40;;;;;;;3.30;2.90;;;;;;;-128.00;-1.00;-1.00;105385;1256;1004109;-80
2023/08/28 03:55:08;;;;;;;7.40;3.70;;;;;;;-128.00;-1.00;-1.00;105280;1256;1004366;-80
2023/08/28 03:57:34;;;;;;;7.70;3.40;;;;;;;-128.00;-1.00;-1.00;105296;1256;1003984;-80
2023/08/28 04:00:06;;;;;;;7.40;3.80;;;;;;;-128.00;-1.00;-1.00;105223;1256;1004114;-80
2023/08/28 04:02:32;;;;;;;7.90;5.30;;;;;;;-128.00;-1.00;-1.00;105256;1257;1046287;-80
2023/08/28 04:05:02;;;;;;;7.80;4.90;;;;;;;-128.00;-1.00;-1.00;105460;1256;1003718;-80
2023/08/28 04:07:29;;;;;;;10.00;5.40;;;;;;;-128.00;-1.00;-1.00;105309;1257;1061520;-80
2023/08/28 04:09:55;;;;;;;14.70;10.50;;;;;;;-128.00;-1.00;-1.00;105278;1256;1005009;-80
2023/08/28 04:12:22;;;;;;;8.30;5.30;;;;;;;-128.00;-1.00;-1.00;105226;1256;1005371;-80
2023/08/28 04:14:48;;;;;;;6.30;5.30;;;;;;;-128.00;-1.00;-1.00;105223;1256;1003901;-80
2023/08/28 04:17:16;;;;;;;12.20;7.60;;;;;;;-128.00;-1.00;-1.00;105287;1255;1004632;-79
2023/08/28 04:19:43;;;;;;;5.40;3.90;;;;;;;-128.00;-1.00;-1.00;105254;1256;1004847;-80
2023/08/28 04:22:09;;;;;;;8.70;3.10;;;;;;;-128.00;-1.00;-1.00;105228;1257;1004162;-80
2023/08/28 04:24:36;;;;;;;3.90;2.60;;;;;;;-128.00;-1.00;-1.00;105248;1256;1004269;-80
2023/08/28 04:27:02;;;;;;;3.60;3.00;;;;;;;-128.00;-1.00;-1.00;105203;1255;1004635;-80
2023/08/28 04:29:29;;;;;;;6.40;3.20;;;;;;;-128.00;-1.00;-1.00;105259;1256;1004548;-80
2023/08/28 04:31:55;;;;;;;4.90;2.90;;;;;;;-128.00;-1.00;-1.00;105264;1255;1005085;-81
2023/08/28 04:34:22;;;;;;;3.10;2.60;;;;;;;-128.00;-1.00;-1.00;105245;1255;1003956;-80
2023/08/28 04:36:48;;;;;;;5.20;2.80;;;;;;;-128.00;-1.00;-1.00;105231;1256;1004055;-80
2023/08/28 04:39:15;;;;;;;2.50;2.00;;;;;;;-128.00;-1.00;-1.00;105250;1255;1004646;-80
2023/08/28 04:41:41;;;;;;;3.30;2.40;;;;;;;-128.00;-1.00;-1.00;105272;1256;1004834;-80
2023/08/28 04:44:08;;;;;;;2.90;2.30;;;;;;;-128.00;-1.00;-1.00;105265;1255;1004879;-80
2023/08/28 04:46:34;;;;;;;4.80;2.80;;;;;;;-128.00;-1.00;-1.00;105286;1256;1005131;-80
2023/08/28 04:49:01;;;;;;;9.00;2.80;;;;;;;-128.00;-1.00;-1.00;105238;1256;1004301;-80
2023/08/28 04:51:27;;;;;;;4.50;2.60;;;;;;;-128.00;-1.00;-1.00;105235;1256;1004236;-80
2023/08/28 04:53:54;;;;;;;5.80;3.30;;;;;;;-128.00;-1.00;-1.00;105398;1254;1003323;-80
2023/08/28 04:56:20;;;;;;;10.80;3.40;;;;;;;-128.00;-1.00;-1.00;105378;1254;1004864;-80
2023/08/28 04:58:46;;;;;;;4.20;3.00;;;;;;;-128.00;-1.00;-1.00;105375;1254;1004351;-80
2023/08/28 05:01:13;;;;;;;5.20;3.20;;;;;;;-128.00;-1.00;-1.00;105297;1254;1004014;-79
2023/08/28 05:03:39;;;;;;;5.10;3.40;;;;;;;-128.00;-1.00;-1.00;105317;1254;1004715;-80
2023/08/28 05:06:06;;;;;;;4.10;2.90;;;;;;;-128.00;-1.00;-1.00;105262;1256;1004143;-80
2023/08/28 05:08:33;;;;;;;7.20;4.10;;;;;;;-128.00;-1.00;-1.00;105248;1256;1003883;-80
2023/08/28 05:11:03;;;;;;;5.10;3.80;;;;;;;-128.00;-1.00;-1.00;105298;1256;1004378;-80
2023/08/28 05:13:30;;;;;;;15.80;13.90;;;;;;;-128.00;-1.00;-1.00;105333;1254;1058990;-80
2023/08/28 05:15:57;;;;;;;9.80;5.60;;;;;;;-128.00;-1.00;-1.00;105403;1254;1003694;-80
2023/08/28 05:18:23;;;;;;;3.80;3.40;;;;;;;-128.00;-1.00;-1.00;105377;1259;1004873;-80
2023/08/28 05:20:50;;;;;;;4.90;3.80;;;;;;;-128.00;-1.00;-1.00;105537;1254;1004015;-80
2023/08/28 05:23:23;;;;;;;4.70;3.40;;;;;;;-128.00;-1.00;-1.00;105418;1254;1004412;-79
2023/08/28 05:25:50;;;;;;;5.00;3.80;;;;;;;-128.00;-1.00;-1.00;105340;1254;1058708;-80
2023/08/28 05:28:17;;;;;;;7.90;4.50;;;;;;;-128.00;-1.00;-1.00;105230;1256;1003365;-80
2023/08/28 05:30:43;;;;;;;8.00;3.50;;;;;;;-128.00;-1.00;-1.00;105246;1257;1004154;-80
2023/08/28 05:33:10;;;;;;;8.10;3.90;;;;;;;-128.00;-1.00;-1.00;105248;1255;1003643;-80
2023/08/28 05:35:36;;;;;;;5.20;4.10;;;;;;;-128.00;-1.00;-1.00;105241;1256;1003871;-80
2023/08/28 05:38:03;;;;;;;5.70;2.40;;;;;;;-128.00;-1.00;-1.00;105244;1256;1004503;-80
2023/08/28 05:40:29;;;;;;;8.50;2.70;;;;;;;-128.00;-1.00;-1.00;105251;1257;1003670;-81
2023/08/28 05:42:56;;;;;;;8.00;3.60;;;;;;;-128.00;-1.00;-1.00;105307;1256;1004120;-80
2023/08/28 05:45:22;;;;;;;3.00;2.60;;;;;;;-128.00;-1.00;-1.00;105304;1256;1004731;-80
2023/08/28 05:47:49;;;;;;;3.20;2.20;;;;;;;-128.00;-1.00;-1.00;105281;1255;1004150;-80
2023/08/28 05:50:18;;;;;;;3.20;2.30;;;;;;;-128.00;-1.00;-1.00;105226;1257;1003432;-80
2023/08/28 05:52:45;;;;;;;6.90;3.10;;;;;;;-128.00;-1.00;-1.00;105311;1259;1046015;-80
2023/08/28 05:55:11;;;;;;;7.50;4.30;;;;;;;-128.00;-1.00;-1.00;105573;1254;1003759;-80
2023/08/28 05:57:38;;;;;;;6.20;3.20;;;;;;;-128.00;-1.00;-1.00;105501;1254;1003695;-80
2023/08/28 06:00:05;;;;;;;4.90;3.10;;;;;;;-128.00;-1.00;-1.00;105345;1254;1004204;-80
2023/08/28 06:02:31;;;;;;;3.80;3.00;;;;;;;-128.00;-1.00;-1.00;105371;1254;1004177;-80
2023/08/28 06:04:58;;;;;;;4.20;2.30;;;;;;;-128.00;-1.00;-1.00;105185;1255;1003244;-79
2023/08/28 06:07:24;;;;;;;4.30;2.80;;;;;;;-128.00;-1.00;-1.00;105328;1256;1004567;-79
2023/08/28 06:09:51;;;;;;;5.80;2.30;;;;;;;-128.00;-1.00;-1.00;105261;1257;1004660;-80
2023/08/28 06:12:18;;;;;;;3.50;2.40;;;;;;;-128.00;-1.00;-1.00;105271;1258;1003836;-80
2023/08/28 06:14:44;;;;;;;3.50;2.60;;;;;;;-128.00;-1.00;-1.00;105353;1254;1003427;-80
2023/08/28 06:17:11;;;;;;;4.30;2.70;;;;;;;-128.00;-1.00;-1.00;105256;1257;1005308;-80
2023/08/28 06:19:37;;;;;;;4.10;2.50;;;;;;;-128.00;-1.00;-1.00;105237;1257;1004672;-80
2023/08/28 06:22:06;;;;;;;5.00;2.70;;;;;;;-128.00;-1.00;-1.00;105347;1254;1004230;-80
2023/08/28 06:24:33;;;;;;;5.60;3.20;;;;;;;-128.00;-1.00;-1.00;105281;1254;1057906;-80
2023/08/28 06:26:59;;;;;;;7.90;3.10;;;;;;;-128.00;-1.00;-1.00;105257;1254;1004603;-80
2023/08/28 06:29:26;;;;;;;3.60;2.50;;;;;;;-128.00;-1.00;-1.00;105317;1255;1004348;-80
2023/08/28 06:31:53;;;;;;;3.70;2.40;;;;;;;-128.00;-1.00;-1.00;105251;1259;1004699;-80
2023/08/28 06:34:19;;;;;;;6.10;2.70;;;;;;;-128.00;-1.00;-1.00;105248;1257;1003406;-80
2023/08/28 06:36:46;;;;;;;3.40;2.60;;;;;;;-128.00;-1.00;-1.00;105297;1256;1004418;-80
2023/08/28 06:39:13;;;;;;;5.40;2.90;;;;;;;-128.00;-1.00;-1.00;105187;1256;1003839;-80
2023/08/28 06:41:39;;;;;;;3.20;2.70;;;;;;;-128.00;-1.00;-1.00;105253;1257;1004516;-80
2023/08/28 06:44:06;;;;;;;5.00;2.70;;;;;;;-128.00;-1.00;-1.00;105231;1256;1003773;-80
2023/08/28 06:46:32;;;;;;;4.80;3.50;;;;;;;-128.00;-1.00;-1.00;105260;1257;1004642;-80
2023/08/28 06:48:59;;;;;;;3.90;2.60;;;;;;;-128.00;-1.00;-1.00;105239;1257;1005816;-80
2023/08/28 06:51:25;;;;;;;11.00;3.70;;;;;;;-128.00;-1.00;-1.00;105292;1254;1003405;-80
2023/08/28 06:53:52;;;;;;;9.40;3.40;;;;;;;-128.00;-1.00;-1.00;105396;1254;1004002;-80
2023/08/28 06:56:19;;;;;;;8.70;3.70;;;;;;;-128.00;-1.00;-1.00;105248;1257;1004216;-80
2023/08/28 06:58:45;;;;;;;3.40;2.30;;;;;;;-128.00;-1.00;-1.00;105114;1254;1004306;-80
2023/08/28 07:01:12;;;;;;;4.50;2.70;;;;;;;-128.00;-1.00;-1.00;105163;1256;1003916;-80
2023/08/28 07:03:38;;;;;;;3.40;2.80;;;;;;;-128.00;-1.00;-1.00;105154;1254;1005074;-80
2023/08/28 07:06:05;;;;;;;4.60;2.40;;;;;;;-128.00;-1.00;-1.00;105004;1257;1004314;-80
2023/08/28 07:08:31;;;;;;;3.00;2.40;;;;;;;-128.00;-1.00;-1.00;105173;1257;1004914;-80
2023/08/28 07:10:58;;;;;;;4.10;2.90;;;;;;;-128.00;-1.00;-1.00;104929;1260;1003592;-80
2023/08/28 07:13:24;;;;;;;5.70;2.60;;;;;;;-128.00;-1.00;-1.00;104957;1256;1003759;-80
2023/08/28 07:15:51;;;;;;;6.80;3.90;;;;;;;-128.00;-1.00;-1.00;105059;1260;1004673;-80
2023/08/28 07:18:17;;;;;;;3.70;3.30;;;;;;;-128.00;-1.00;-1.00;105244;1257;1004425;-80
2023/08/28 07:20:44;;;;;;;6.40;2.80;;;;;;;-128.00;-1.00;-1.00;105219;1254;1004671;-80
2023/08/28 07:23:10;;;;;;;4.60;2.80;;;;;;;-128.00;-1.00;-1.00;105255;1256;1003883;-80
2023/08/28 07:25:38;;;;;;;3.60;2.40;;;;;;;-128.00;-1.00;-1.00;105424;1254;1004449;-80
2023/08/28 07:28:07;;;;;;;22.10;11.30;;;;;;;-128.00;-1.00;-1.00;105332;1253;1004614;-80
2023/08/28 07:30:33;;;;;;;15.90;6.10;;;;;;;-128.00;-1.00;-1.00;105522;1253;1004391;-80
2023/08/28 07:33:00;;;;;;;13.30;9.20;;;;;;;-128.00;-1.00;-1.00;105665;1254;1004040;-80
2023/08/28 07:35:29;;;;;;;28.80;16.80;;;;;;;-128.00;-1.00;-1.00;105556;1257;1003485;-80
2023/08/28 07:37:55;;;;;;;12.00;6.10;;;;;;;-128.00;-1.00;-1.00;105509;1254;1057131;-80
2023/08/28 07:40:22;;;;;;;5.40;2.70;;;;;;;-128.00;-1.00;-1.00;105451;1254;1005172;-80
2023/08/28 07:42:48;;;;;;;4.30;2.60;;;;;;;-128.00;-1.00;-1.00;105460;1252;1003340;-80
2023/08/28 07:45:15;;;;;;;3.30;2.80;;;;;;;-128.00;-1.00;-1.00;105404;1254;1004379;-80
2023/08/28 07:47:41;;;;;;;5.00;3.10;;;;;;;-128.00;-1.00;-1.00;105388;1254;1004889;-80
2023/08/28 07:50:08;;;;;;;3.00;2.20;;;;;;;-128.00;-1.00;-1.00;105390;1253;1004221;-80
2023/08/28 07:52:35;;;;;;;4.90;2.50;;;;;;;-128.00;-1.00;-1.00;105482;1253;1003708;-80
2023/08/28 07:55:01;;;;;;;4.60;2.70;;;;;;;-128.00;-1.00;-1.00;105384;1254;1004116;-80
2023/08/28 07:57:28;;;;;;;5.90;2.50;;;;;;;-128.00;-1.00;-1.00;105423;1256;1004256;-80
2023/08/28 07:59:56;;;;;;;5.60;3.30;;;;;;;-128.00;-1.00;-1.00;105260;1254;1004425;-80
2023/08/28 08:02:22;;;;;;;6.10;2.60;;;;;;;-128.00;-1.00;-1.00;105421;1254;1004238;-80
2023/08/28 08:04:49;;;;;;;5.80;2.80;;;;;;;-128.00;-1.00;-1.00;105385;1254;1003920;-80
2023/08/28 08:07:15;;;;;;;4.00;3.10;;;;;;;-128.00;-1.00;-1.00;105494;1254;1004220;-80
2023/08/28 08:09:42;;;;;;;3.90;2.90;;;;;;;-128.00;-1.00;-1.00;105562;1252;1004414;-80
2023/08/28 08:12:08;;;;;;;3.70;2.70;;;;;;;-128.00;-1.00;-1.00;105458;1253;1004944;-80
2023/08/28 08:14:35;;;;;;;3.40;2.50;;;;;;;-128.00;-1.00;-1.00;105343;1253;1003996;-80
2023/08/28 08:17:01;;;;;;;3.70;2.80;;;;;;;-128.00;-1.00;-1.00;105358;1253;1003925;-80
2023/08/28 08:19:28;;;;;;;4.20;3.80;;;;;;;-128.00;-1.00;-1.00;105363;1254;1004996;-80
2023/08/28 08:21:54;;;;;;;3.40;2.70;;;;;;;-128.00;-1.00;-1.00;105369;1254;1004377;-80
2023/08/28 08:24:22;;;;;;;7.10;2.90;;;;;;;-128.00;-1.00;-1.00;105367;1255;1004559;-81
2023/08/28 08:26:49;;;;;;;7.30;2.70;;;;;;;-128.00;-1.00;-1.00;105511;1253;1003745;-80
2023/08/28 08:29:16;;;;;;;3.50;2.60;;;;;;;-128.00;-1.00;-1.00;105325;1254;1004407;-80
2023/08/28 08:31:42;;;;;;;4.10;2.60;;;;;;;-128.00;-1.00;-1.00;105323;1253;1004206;-80
2023/08/28 08:34:08;;;;;;;3.40;2.60;;;;;;;-128.00;-1.00;-1.00;105412;1253;1004692;-80
2023/08/28 08:36:35;;;;;;;3.00;2.20;;;;;;;-128.00;-1.00;-1.00;105464;1252;1004202;-80
2023/08/28 08:39:03;;;;;;;4.50;2.30;;;;;;;-128.00;-1.00;-1.00;105446;1254;1004084;-80
2023/08/28 08:41:29;;;;;;;3.40;2.40;;;;;;;-128.00;-1.00;-1.00;105408;1253;1004506;-80
2023/08/28 08:43:56;;;;;;;3.40;2.50;;;;;;;-128.00;-1.00;-1.00;105333;1254;1004906;-80
2023/08/28 08:46:25;;;;;;;5.00;2.20;;;;;;;-128.00;-1.00;-1.00;105436;1253;1005040;-80
2023/08/28 08:48:53;;;;;;;3.00;2.50;;;;;;;-128.00;-1.00;-1.00;105406;1253;1059935;-80
2023/08/28 08:51:20;;;;;;;6.00;2.80;;;;;;;-128.00;-1.00;-1.00;105352;1254;1004653;-80
2023/08/28 08:54:12;;;;;;;4.40;2.80;;;;;;;-128.00;-1.00;-1.00;105393;1254;1004724;-80
2023/08/28 08:56:38;;;;;;;4.40;2.40;;;;;;;-128.00;-1.00;-1.00;105314;1254;1045721;-80
2023/08/28 08:59:05;;;;;;;3.30;2.60;;;;;;;-128.00;-1.00;-1.00;105386;1254;1004234;-80
2023/08/28 09:01:31;;;;;;;10.40;3.40;;;;;;;-128.00;-1.00;-1.00;105379;1254;1004742;-80
2023/08/28 09:03:58;;;;;;;5.80;3.00;;;;;;;-128.00;-1.00;-1.00;105406;1254;1003963;-82
2023/08/28 09:06:26;;;;;;;5.10;3.20;;;;;;;-128.00;-1.00;-1.00;105335;1254;1004324;-81
2023/08/28 09:08:52;;;;;;;6.90;3.70;;;;;;;-128.00;-1.00;-1.00;105377;1253;1003630;-80
2023/08/28 09:11:19;;;;;;;4.10;2.90;;;;;;;-128.00;-1.00;-1.00;105455;1253;1004546;-80
2023/08/28 09:13:45;;;;;;;4.30;2.90;;;;;;;-128.00;-1.00;-1.00;105454;1253;1004326;-80
2023/08/28 09:16:12;;;;;;;3.50;2.80;;;;;;;-128.00;-1.00;-1.00;105452;1253;1004757;-80
2023/08/28 09:18:39;;;;;;;5.60;3.70;;;;;;;-128.00;-1.00;-1.00;105385;1253;1005167;-80
2023/08/28 09:21:12;;;;;;;6.50;3.20;;;;;;;-128.00;-1.00;-1.00;105432;1253;1004316;-80
2023/08/28 09:23:45;;;;;;;5.60;3.40;;;;;;;-128.00;-1.00;-1.00;105448;1253;1046788;-81
2023/08/28 09:26:13;;;;;;;4.30;3.60;;;;;;;-128.00;-1.00;-1.00;105425;1254;1060347;-80
2023/08/28 09:28:39;;;;;;;10.00;3.70;;;;;;;-128.00;-1.00;-1.00;105464;1254;1003244;-81
2023/08/28 09:31:06;;;;;;;4.30;3.60;;;;;;;-128.00;-1.00;-1.00;105491;1253;1004961;-80
2023/08/28 09:33:45;;;;;;;6.60;4.10;;;;;;;-128.00;-1.00;-1.00;105435;1253;1003827;-80
2023/08/28 09:36:16;;;;;;;4.90;3.60;;;;;;;-128.00;-1.00;-1.00;105534;1253;1048872;-81
2023/08/28 09:38:42;;;;;;;5.60;3.40;;;;;;;-128.00;-1.00;-1.00;105423;1253;1060890;-80
2023/08/28 09:41:10;;;;;;;6.40;3.70;;;;;;;-128.00;-1.00;-1.00;105476;1251;1004353;-80
2023/08/28 09:43:36;;;;;;;7.20;3.60;;;;;;;-128.00;-1.00;-1.00;105461;1253;1004125;-80
2023/08/28 09:46:04;;;;;;;4.60;3.10;;;;;;;-128.00;-1.00;-1.00;105419;1253;1005009;-81
2023/08/28 09:48:32;;;;;;;3.50;2.90;;;;;;;-128.00;-1.00;-1.00;105509;1253;1004066;-80
2023/08/28 09:51:03;;;;;;;3.30;2.70;;;;;;;-128.00;-1.00;-1.00;105439;1252;1004506;-80
2023/08/28 09:53:30;;;;;;;6.60;3.30;;;;;;;-128.00;-1.00;-1.00;105433;1253;1056699;-80
2023/08/28 09:55:57;;;;;;;5.00;3.40;;;;;;;-128.00;-1.00;-1.00;105461;1253;1004306;-80
2023/08/28 09:58:27;;;;;;;7.80;3.40;;;;;;;-128.00;-1.00;-1.00;105358;1253;1004768;-80
2023/08/28 10:00:55;;;;;;;8.10;3.60;;;;;;;-128.00;-1.00;-1.00;105229;1253;1048162;-80
2023/08/28 10:03:23;;;;;;;4.90;3.10;;;;;;;-128.00;-1.00;-1.00;105519;1253;1004667;-80
2023/08/28 10:05:51;;;;;;;4.20;3.10;;;;;;;-128.00;-1.00;-1.00;105110;1254;1005425;-80
2023/08/28 10:08:18;;;;;;;5.30;3.50;;;;;;;-128.00;-1.00;-1.00;105234;1254;1004312;-80
2023/08/28 10:10:51;;;;;;;7.50;4.30;;;;;;;-128.00;-1.00;-1.00;105408;1253;1005202;-80
2023/08/28 10:13:21;;;;;;;6.60;4.20;;;;;;;-128.00;-1.00;-1.00;105470;1253;1046614;-80
2023/08/28 10:15:58;;;;;;;6.80;4.50;;;;;;;-128.00;-1.00;-1.00;105413;1254;1061205;-80
2023/08/28 10:18:34;;;;;;;6.60;4.20;;;;;;;-128.00;-1.00;-1.00;105315;1254;1057996;-80
2023/08/28 10:21:01;;;;;;;7.50;4.10;;;;;;;-128.00;-1.00;-1.00;105456;1254;1058946;-80
2023/08/28 10:23:28;;;;;;;8.00;4.80;;;;;;;-128.00;-1.00;-1.00;105401;1253;1004454;-80
2023/08/28 10:25:54;;;;;;;8.60;4.40;;;;;;;-128.00;-1.00;-1.00;105267;1254;1003947;-80
2023/08/28 10:28:22;;;;;;;10.60;4.40;;;;;;;-128.00;-1.00;-1.00;105430;1253;1003569;-80
2023/08/28 10:30:49;;;;;;;7.50;5.00;;;;;;;-128.00;-1.00;-1.00;105413;1253;1004940;-80
2023/08/28 10:33:16;;;;;;;6.10;4.20;;;;;;;-128.00;-1.00;-1.00;105288;1253;1003768;-81
2023/08/28 10:35:43;;;;;;;7.90;5.10;;;;;;;-128.00;-1.00;-1.00;105357;1254;1003946;-81
2023/08/28 10:38:10;;;;;;;9.40;4.60;;;;;;;-128.00;-1.00;-1.00;105346;1254;1005295;-80
2023/08/28 10:40:37;;;;;;;7.10;3.10;;;;;;;-128.00;-1.00;-1.00;105381;1253;1004722;-81
2023/08/28 10:43:04;;;;;;;8.30;3.10;;;;;;;-128.00;-1.00;-1.00;105425;1253;1004025;-81
2023/08/28 10:45:34;;;;;;;5.20;3.60;;;;;;;-128.00;-1.00;-1.00;105430;1253;1004183;-80
2023/08/28 10:48:00;;;;;;;5.60;4.00;;;;;;;-128.00;-1.00;-1.00;105335;1253;1046591;-81
2023/08/28 10:50:34;;;;;;;8.80;4.10;;;;;;;-128.00;-1.00;-1.00;105420;1253;1004044;-80
2023/08/28 10:53:01;;;;;;;4.20;3.70;;;;;;;-128.00;-1.00;-1.00;105532;1253;1060232;-81
2023/08/28 10:55:28;;;;;;;11.50;5.10;;;;;;;-128.00;-1.00;-1.00;105471;1254;1003889;-80
2023/08/28 10:57:55;;;;;;;6.20;4.50;;;;;;;-128.00;-1.00;-1.00;105421;1254;1004048;-80
2023/08/28 11:00:22;;;;;;;5.60;4.30;;;;;;;-128.00;-1.00;-1.00;105326;1253;1003758;-80
2023/08/28 11:03:18;;;;;;;8.10;5.10;;;;;;;-128.00;-1.00;-1.00;105456;1253;1004782;-80
2023/08/28 11:05:44;;;;;;;7.70;4.40;;;;;;;-128.00;-1.00;-1.00;105435;1254;1061387;-80
2023/08/28 11:08:13;;;;;;;7.30;4.00;;;;;;;-128.00;-1.00;-1.00;105396;1254;1004544;-80
2023/08/28 11:10:45;;;;;;;6.50;4.80;;;;;;;-128.00;-1.00;-1.00;105418;1254;1003670;-80
2023/08/28 11:13:23;;;;;;;7.50;4.80;;;;;;;-128.00;-1.00;-1.00;105321;1253;1046569;-81
2023/08/28 11:16:01;;;;;;;8.90;4.60;;;;;;;-128.00;-1.00;-1.00;105399;1254;1047496;-80